• Join FlightAware (Why Join?)
  • Login
  • US Flag 
08:26AM EDT


 

Airport Tracker/Info


-or-


 

Live Flight TrackerFlight Track Log ✈ ACA291 ✈ 10-May-2013 ✈ CYVR - CYXY

Flight Track Log - Related Links

Times and Time Zones

All times are in EDT time to prevent confusion due to time zone crossing. See the ACA291 flight status page for this flight to view local times or setup timezone preferences in your user account.

Time Position Orientation Groundspeed Altitude Reporting Facility
EDT Latitude Longitude Course Direction KTS MPH feet Rate Location/Type
10:10PM 49.1667 -123.2333 338° Northwest 160 184 1,600  Level Vancouver Center
10:11PM 49.1833 -123.3167 287° West 200 230 3,200 2,100 Climbing Vancouver Center
10:12PM 49.3240 -123.3407 327° Northwest  Level FlightAware Approximate
10:12PM 49.2333 -123.3833 319° Northwest 250 288 5,800  Level Vancouver Center
10:13PM 49.4186 -123.4149 333° Northwest  Level FlightAware Approximate
10:13PM 49.3000 -123.4167 342° North 280 322 8,600  Level Vancouver Center
10:14PM 49.5119 -123.4952 327° Northwest  Level FlightAware Approximate
10:14PM 49.3833 -123.3667 21° North 300 345 9,800  Level Vancouver Center
10:15PM 49.6088 -123.5638 338° Northwest  Level FlightAware Approximate
10:15PM 49.4667 -123.3167 21° North 340 391 11,400  Level Vancouver Center
10:16PM 49.5667 -123.2667 18° North 360 414 13,800 2,400 Climbing Vancouver Center
10:17PM 49.6667 -123.2000 23° Northeast 370 426 16,300 2,160 Climbing Vancouver Center
10:18PM 49.7667 -123.1833 North 380 437 18,200 1,920 Climbing Vancouver Center
10:19PM 49.8833 -123.1833 360° North 400 460 20,200 1,920 Climbing Vancouver Center
10:20PM 49.9833 -123.1833 360° North 410 472 22,100 1,680 Climbing Vancouver Center
10:21PM 50.1000 -123.2500 340° North 410 472 23,600 1,500 Climbing Vancouver Center
10:22PM 50.2000 -123.3333 332° Northwest 410 472 25,200 1,560 Climbing Vancouver Center
10:23PM 50.3000 -123.4000 337° Northwest 420 483 26,800 1,380 Climbing Vancouver Center
10:24PM 50.4000 -123.4833 332° Northwest 420 483 28,000 1,200 Climbing Vancouver Center
10:25PM 50.5000 -123.5667 332° Northwest 420 483 29,300 1,440 Climbing Vancouver Center
10:26PM 50.6167 -123.6667 331° Northwest 420 483 30,900 1,500 Climbing Vancouver Center
10:27PM 50.7167 -123.7500 332° Northwest 420 483 32,300 1,260 Climbing Vancouver Center
10:28PM 50.8167 -123.8167 337° Northwest 410 472 33,500 960 Climbing Vancouver Center
10:29PM 50.9167 -123.9000 332° Northwest 410 472 34,300 960 Climbing Vancouver Center
10:30PM 51.0167 -123.9833 332° Northwest 410 472 35,500 720 Climbing Vancouver Center
10:31PM 51.1167 -124.0667 332° Northwest 400 460 35,800 240 Climbing Vancouver Center
10:32PM 51.2167 -124.1500 332° Northwest 410 472 36,000 60 Climbing Vancouver Center
10:33PM 51.3167 -124.2333 332° Northwest 410 472 36,000  Level Vancouver Center
10:34PM 51.4333 -124.3000 340° North 410 472 36,000  Level Vancouver Center
10:35PM 51.5333 -124.3833 333° Northwest 410 472 36,000  Level Vancouver Center
10:36PM 51.6167 -124.4667 328° Northwest 410 472 36,000  Level Vancouver Center
10:37PM 51.7333 -124.5833 328° Northwest 410 472 36,000  Level Vancouver Center
10:38PM 51.8333 -124.6667 333° Northwest 420 483 36,000  Level Vancouver Center
10:39PM 51.9333 -124.7500 333° Northwest 420 483 36,000  Level Vancouver Center
10:40PM 52.0333 -124.8333 333° Northwest 420 483 36,000  Level Vancouver Center
10:41PM 52.1333 -124.9167 333° Northwest 420 483 36,000  Level Vancouver Center
10:42PM 52.2500 -125.0000 336° Northwest 420 483 36,000  Level Vancouver Center
10:43PM 52.3500 -125.0833 333° Northwest 420 483 36,000  Level Vancouver Center
10:44PM 52.4500 -125.2000 325° Northwest 420 483 36,000  Level Vancouver Center
10:45PM 52.5500 -125.2833 333° Northwest 420 483 36,000  Level Vancouver Center
10:46PM 52.6500 -125.3667 333° Northwest 420 483 36,000  Level Vancouver Center
10:47PM 52.7667 -125.4500 337° Northwest 420 483 36,000  Level Vancouver Center
10:48PM 52.8667 -125.5333 333° Northwest 420 483 36,000  Level Vancouver Center
10:49PM 52.9833 -125.6500 329° Northwest 420 483 36,000  Level Vancouver Center
10:50PM 53.0833 -125.7500 329° Northwest 420 483 36,000  Level Vancouver Center
10:51PM 53.1833 -125.8333 333° Northwest 420 483 36,000  Level Vancouver Center
10:52PM 53.2833 -125.9167 334° Northwest 420 483 36,000  Level Vancouver Center
10:53PM 53.3833 -126.0000 334° Northwest 420 483 36,000  Level Vancouver Center
10:54PM 53.4833 -126.1333 322° Northwest 420 483 36,000  Level Vancouver Center
10:55PM 53.5833 -126.2167 334° Northwest 420 483 36,000  Level Vancouver Center
10:56PM 53.7000 -126.3000 337° Northwest 420 483 36,000  Level Vancouver Center
10:57PM 53.8000 -126.4000 329° Northwest 420 483 36,000  Level Vancouver Center
10:58PM 53.9000 -126.5167 326° Northwest 420 483 36,000  Level Vancouver Center
10:59PM 54.0000 -126.6000 334° Northwest 420 483 36,000  Level Vancouver Center
11:00PM 54.1000 -126.7000 330° Northwest 420 483 36,000  Level Vancouver Center
11:01PM 54.2167 -126.8000 333° Northwest 420 483 36,000  Level Vancouver Center
11:02PM 54.3000 -126.8833 330° Northwest 420 483 36,000  Level Vancouver Center
11:03PM 54.4000 -127.0000 326° Northwest 420 483 36,000  Level Vancouver Center
11:04PM 54.5000 -127.1000 330° Northwest 420 483 36,000  Level Vancouver Center
11:05PM 54.6167 -127.2000 334° Northwest 420 483 36,000  Level Vancouver Center
11:06PM 54.7167 -127.2833 334° Northwest 410 472 36,000  Level Vancouver Center
11:07PM 54.8167 -127.3833 330° Northwest 420 483 36,000  Level Vancouver Center
11:08PM 54.9167 -127.4833 330° Northwest 420 483 36,000  Level Vancouver Center
11:09PM 55.0167 -127.6000 326° Northwest 430 495 36,000  Level Vancouver Center
11:10PM 55.1167 -127.7000 330° Northwest 430 495 36,000  Level Vancouver Center
11:11PM 55.2167 -127.8000 330° Northwest 410 472 36,000  Level Vancouver Center
11:12PM 55.3167 -127.9000 330° Northwest 400 460 36,000  Level Vancouver Center
11:13PM 55.4333 -128.0333 327° Northwest 420 483 36,000  Level Vancouver Center
11:14PM 55.5167 -128.1333 326° Northwest 440 506 36,000  Level Vancouver Center
11:15PM 55.6333 -128.2333 334° Northwest 430 495 36,000  Level Vancouver Center
11:16PM 55.7333 -128.3333 331° Northwest 430 495 36,000  Level Vancouver Center
11:17PM 55.8500 -128.4667 327° Northwest 420 483 36,000  Level Vancouver Center
11:18PM 55.9333 -128.5333 336° Northwest 420 483 36,000  Level Vancouver Center
11:19PM 56.0333 -128.6667 323° Northwest 460 529 36,000  Level Vancouver Center
11:20PM 56.1500 -128.7667 334° Northwest 430 495 36,000  Level Vancouver Center
11:21PM 56.2500 -128.9000 323° Northwest 420 483 36,000  Level Vancouver Center
11:22PM 56.3500 -129.0000 331° Northwest 430 495 36,000  Level Vancouver Center
11:23PM 56.4333 -129.1000 326° Northwest 420 483 36,000  Level Vancouver Center
11:24PM 56.5500 -129.2167 331° Northwest 420 483 36,000  Level Vancouver Center
11:25PM 56.6500 -129.3167 331° Northwest 440 506 36,000  Level Vancouver Center
11:26PM 56.7500 -129.4500 324° Northwest 420 483 36,000  Level Vancouver Center
11:27PM 56.8500 -129.5500 331° Northwest 420 483 36,000  Level Vancouver Center
11:28PM 56.9500 -129.7000 321° Northwest 410 472 36,000  Level Vancouver Center
11:29PM 57.0333 -129.8333 319° Northwest 360 414 36,000  Level Vancouver Center
11:30PM 57.1333 -129.9333 332° Northwest 410 472 36,000  Level Vancouver Center
11:32PM 57.2810 -130.1182 326° Northwest  Level FlightAware Approximate
11:39PM 57.8921 -130.9272 324° Northwest  Level FlightAware Approximate
11:40PM 57.9778 -131.0480 323° Northwest  Level FlightAware Approximate
11:41PM 58.0634 -131.1695 323° Northwest  Level FlightAware Approximate
11:42PM 58.1488 -131.2915 323° Northwest  Level FlightAware Approximate
11:43PM 58.2342 -131.4141 323° Northwest  Level FlightAware Approximate
11:44PM 58.3195 -131.5372 324° Northwest  Level FlightAware Approximate
11:45PM 58.4055 -131.6586 324° Northwest  Level FlightAware Approximate
11:46PM 58.4915 -131.7805 323° Northwest  Level FlightAware Approximate
11:47PM 58.5774 -131.9030 323° Northwest  Level FlightAware Approximate
11:48PM 58.6626 -132.0275 322° Northwest  Level FlightAware Approximate
11:49PM 58.7467 -132.1550 322° Northwest  Level FlightAware Approximate
11:50PM 58.8307 -132.2831 322° Northwest  Level FlightAware Approximate
11:51PM 58.9145 -132.4119 322° Northwest  Level FlightAware Approximate
11:52PM 59.0000 -132.5366 324° Northwest  Level FlightAware Approximate
11:53PM 59.0854 -132.6621 322° Northwest  Level FlightAware Approximate
11:54PM 59.1694 -132.7916 322° Northwest  Level FlightAware Approximate
11:55PM 59.2531 -132.9218 320° Northwest  Level FlightAware Approximate
11:56PM 59.3361 -133.0541 323° Northwest  Level FlightAware Approximate
11:57PM 59.4190 -133.1870 322° Northwest  Level FlightAware Approximate
11:58PM 59.5036 -133.3163 322° Northwest  Level FlightAware Approximate
11:59PM 59.5879 -133.4463 322° Northwest  Level FlightAware Approximate
12:00AM 59.6715 -133.5787 321° Northwest  Level FlightAware Approximate
12:01AM 59.7541 -133.7137 321° Northwest  Level FlightAware Approximate
12:02AM 59.8368 -133.8489 321° Northwest  Level FlightAware Approximate
12:03AM 59.9201 -133.9829 321° Northwest  Level FlightAware Approximate
12:04AM 60.0032 -134.1176 321° Northwest  Level FlightAware Approximate
12:05AM 60.0852 -134.2554 320° Northwest  Level FlightAware Approximate
12:06AM 60.1675 -134.3928 323° Northwest  Level FlightAware Approximate
12:07AM 60.2533 -134.5215 323° Northwest  Level FlightAware Approximate
12:08AM 60.3367 -134.6570 320° Northwest  Level FlightAware Approximate
12:09AM 60.4186 -134.7964 320° Northwest  Level FlightAware Approximate
12:10AM 60.5016 -134.9336 321° Northwest  Level FlightAware Approximate
12:11AM 60.5833 -135.0714 270° West  Level FlightAware Approximate
12:12AM 60.6678 -135.0881 18° North  Level FlightAware Approximate
12:13AM 60.7000 -135.0667 18° North  Level FlightAware Approximate
12:14AM 60.7095 -135.0673 18° North  Level Estimated
12:15AM 60.7095 -135.0673 18° North  Level Estimated
12:16AM 60.7095 -135.0673 18° North  Level Estimated
12:17AM 60.7095 -135.0673 18° North  Level Estimated
12:18AM 60.7095 -135.0673 18° North  Level Estimated
12:19AM 60.7095 -135.0673 18° North  Level Estimated
12:20AM 60.7095 -135.0673 18° North  Level Estimated
12:21AM 60.7095 -135.0673 18° North  Level Estimated